sensor_id;sensor_type;location;lat;lon;timestamp;temperature;humidity
16995;DHT22;8614;48.522;9.206;2023-08-07T00:01:37;12.10;99.90
16995;DHT22;8614;48.522;9.206;2023-08-07T00:04:04;12.10;99.90
16995;DHT22;8614;48.522;9.206;2023-08-07T00:06:32;12.10;99.90
16995;DHT22;8614;48.522;9.206;2023-08-07T00:08:59;12.10;99.90
16995;DHT22;8614;48.522;9.206;2023-08-07T00:11:26;12.10;99.90
16995;DHT22;8614;48.522;9.206;2023-08-07T00:13:54;12.10;99.90
16995;DHT22;8614;48.522;9.206;2023-08-07T00:16:21;12.10;99.90
16995;DHT22;8614;48.522;9.206;2023-08-07T00:18:47;12.10;99.90
16995;DHT22;8614;48.522;9.206;2023-08-07T00:21:14;12.10;99.90
16995;DHT22;8614;48.522;9.206;2023-08-07T00:23:42;12.10;99.90
16995;DHT22;8614;48.522;9.206;2023-08-07T00:26:09;12.00;99.90
16995;DHT22;8614;48.522;9.206;2023-08-07T00:28:36;12.00;99.90
16995;DHT22;8614;48.522;9.206;2023-08-07T00:31:03;12.00;99.90
16995;DHT22;8614;48.522;9.206;2023-08-07T00:33:30;12.00;99.90
16995;DHT22;8614;48.522;9.206;2023-08-07T00:35:57;12.00;99.90
16995;DHT22;8614;48.522;9.206;2023-08-07T00:38:24;12.00;99.90
16995;DHT22;8614;48.522;9.206;2023-08-07T00:40:52;12.00;99.90
16995;DHT22;8614;48.522;9.206;2023-08-07T00:43:19;12.00;99.90
16995;DHT22;8614;48.522;9.206;2023-08-07T00:45:47;12.00;99.90
16995;DHT22;8614;48.522;9.206;2023-08-07T00:48:15;12.00;99.90
16995;DHT22;8614;48.522;9.206;2023-08-07T00:50:42;12.00;99.90
16995;DHT22;8614;48.522;9.206;2023-08-07T00:53:10;11.90;99.90
16995;DHT22;8614;48.522;9.206;2023-08-07T00:55:37;11.90;99.90
16995;DHT22;8614;48.522;9.206;2023-08-07T00:58:05;11.80;99.90
16995;DHT22;8614;48.522;9.206;2023-08-07T01:00:32;11.80;99.90
16995;DHT22;8614;48.522;9.206;2023-08-07T01:02:59;11.80;99.90
16995;DHT22;8614;48.522;9.206;2023-08-07T01:05:26;11.70;99.90
16995;DHT22;8614;48.522;9.206;2023-08-07T01:07:53;11.80;99.90
16995;DHT22;8614;48.522;9.206;2023-08-07T01:10:28;11.70;99.90
16995;DHT22;8614;48.522;9.206;2023-08-07T01:13:06;11.70;99.90
16995;DHT22;8614;48.522;9.206;2023-08-07T01:15:37;11.70;99.90
16995;DHT22;8614;48.522;9.206;2023-08-07T01:18:07;11.80;99.90
16995;DHT22;8614;48.522;9.206;2023-08-07T01:20:34;11.70;99.90
16995;DHT22;8614;48.522;9.206;2023-08-07T01:23:02;11.60;99.90
16995;DHT22;8614;48.522;9.206;2023-08-07T01:25:29;11.60;99.90
16995;DHT22;8614;48.522;9.206;2023-08-07T01:28:02;11.60;99.90
16995;DHT22;8614;48.522;9.206;2023-08-07T01:30:36;11.60;99.90
16995;DHT22;8614;48.522;9.206;2023-08-07T01:33:09;11.60;99.90
16995;DHT22;8614;48.522;9.206;2023-08-07T01:35:41;11.50;99.90
16995;DHT22;8614;48.522;9.206;2023-08-07T01:38:11;11.50;99.90
16995;DHT22;8614;48.522;9.206;2023-08-07T01:40:40;11.50;99.90
16995;DHT22;8614;48.522;9.206;2023-08-07T01:43:08;11.50;99.90
16995;DHT22;8614;48.522;9.206;2023-08-07T01:45:35;11.50;99.90
16995;DHT22;8614;48.522;9.206;2023-08-07T01:48:02;11.50;99.90
16995;DHT22;8614;48.522;9.206;2023-08-07T01:50:29;11.40;99.90
16995;DHT22;8614;48.522;9.206;2023-08-07T01:52:57;11.40;99.90
16995;DHT22;8614;48.522;9.206;2023-08-07T01:55:25;11.40;99.90
16995;DHT22;8614;48.522;9.206;2023-08-07T01:57:52;11.40;99.90
16995;DHT22;8614;48.522;9.206;2023-08-07T02:00:20;11.30;99.90
16995;DHT22;8614;48.522;9.206;2023-08-07T02:02:47;11.30;99.90
16995;DHT22;8614;48.522;9.206;2023-08-07T02:05:14;11.40;99.90
16995;DHT22;8614;48.522;9.206;2023-08-07T02:07:42;11.30;99.90
16995;DHT22;8614;48.522;9.206;2023-08-07T02:10:09;11.30;99.90
16995;DHT22;8614;48.522;9.206;2023-08-07T02:12:38;11.30;99.90
16995;DHT22;8614;48.522;9.206;2023-08-07T02:15:06;11.30;99.90
16995;DHT22;8614;48.522;9.206;2023-08-07T02:17:33;11.30;99.90
16995;DHT22;8614;48.522;9.206;2023-08-07T02:20:01;11.30;99.90
16995;DHT22;8614;48.522;9.206;2023-08-07T02:22:28;11.30;99.90
16995;DHT22;8614;48.522;9.206;2023-08-07T02:24:54;11.30;99.90
16995;DHT22;8614;48.522;9.206;2023-08-07T02:27:21;11.30;99.90
16995;DHT22;8614;48.522;9.206;2023-08-07T02:29:49;11.30;99.90
16995;DHT22;8614;48.522;9.206;2023-08-07T02:32:17;11.30;99.90
16995;DHT22;8614;48.522;9.206;2023-08-07T02:34:44;11.30;99.90
16995;DHT22;8614;48.522;9.206;2023-08-07T02:37:11;11.30;99.90
16995;DHT22;8614;48.522;9.206;2023-08-07T02:39:38;11.30;99.90
16995;DHT22;8614;48.522;9.206;2023-08-07T02:42:06;11.30;99.90
16995;DHT22;8614;48.522;9.206;2023-08-07T02:44:33;11.30;99.90
16995;DHT22;8614;48.522;9.206;2023-08-07T02:47:01;11.30;99.90
16995;DHT22;8614;48.522;9.206;2023-08-07T02:49:27;11.40;99.90
16995;DHT22;8614;48.522;9.206;2023-08-07T02:51:54;11.40;99.90
16995;DHT22;8614;48.522;9.206;2023-08-07T02:54:21;11.40;99.90
16995;DHT22;8614;48.522;9.206;2023-08-07T02:56:48;11.40;99.90
16995;DHT22;8614;48.522;9.206;2023-08-07T02:59:15;11.40;99.90
16995;DHT22;8614;48.522;9.206;2023-08-07T03:04:10;11.40;99.90
16995;DHT22;8614;48.522;9.206;2023-08-07T03:06:37;11.50;99.90
16995;DHT22;8614;48.522;9.206;2023-08-07T03:09:04;11.50;99.90
16995;DHT22;8614;48.522;9.206;2023-08-07T03:11:31;11.40;99.90
16995;DHT22;8614;48.522;9.206;2023-08-07T03:13:57;11.50;99.90
16995;DHT22;8614;48.522;9.206;2023-08-07T03:16:24;11.40;99.90
16995;DHT22;8614;48.522;9.206;2023-08-07T03:18:51;11.40;99.90
16995;DHT22;8614;48.522;9.206;2023-08-07T03:21:19;11.30;99.90
16995;DHT22;8614;48.522;9.206;2023-08-07T03:23:46;11.30;99.90
16995;DHT22;8614;48.522;9.206;2023-08-07T03:26:13;11.30;99.90
16995;DHT22;8614;48.522;9.206;2023-08-07T03:28:40;11.30;99.90
16995;DHT22;8614;48.522;9.206;2023-08-07T03:31:08;11.30;99.90
16995;DHT22;8614;48.522;9.206;2023-08-07T03:33:36;11.20;99.90
16995;DHT22;8614;48.522;9.206;2023-08-07T03:36:03;11.20;99.90
16995;DHT22;8614;48.522;9.206;2023-08-07T03:38:33;11.10;99.90
16995;DHT22;8614;48.522;9.206;2023-08-07T03:41:00;11.10;99.90
16995;DHT22;8614;48.522;9.206;2023-08-07T03:43:28;11.10;99.90
16995;DHT22;8614;48.522;9.206;2023-08-07T03:45:55;11.00;99.90
16995;DHT22;8614;48.522;9.206;2023-08-07T03:48:22;11.00;99.90
16995;DHT22;8614;48.522;9.206;2023-08-07T03:50:50;11.00;99.90
16995;DHT22;8614;48.522;9.206;2023-08-07T03:53:17;11.00;99.90
16995;DHT22;8614;48.522;9.206;2023-08-07T03:55:51;10.90;99.90
16995;DHT22;8614;48.522;9.206;2023-08-07T03:58:20;10.90;99.90
16995;DHT22;8614;48.522;9.206;2023-08-07T04:00:47;11.00;99.90
16995;DHT22;8614;48.522;9.206;2023-08-07T04:03:14;11.00;99.90
16995;DHT22;8614;48.522;9.206;2023-08-07T04:05:40;11.00;99.90
16995;DHT22;8614;48.522;9.206;2023-08-07T04:08:07;11.00;99.90
16995;DHT22;8614;48.522;9.206;2023-08-07T04:10:34;11.00;99.90
16995;DHT22;8614;48.522;9.206;2023-08-07T04:13:02;11.00;99.90
16995;DHT22;8614;48.522;9.206;2023-08-07T04:15:29;11.00;99.90
16995;DHT22;8614;48.522;9.206;2023-08-07T04:17:56;11.00;99.90
16995;DHT22;8614;48.522;9.206;2023-08-07T04:20:24;11.00;99.90
16995;DHT22;8614;48.522;9.206;2023-08-07T04:22:51;11.10;99.90
16995;DHT22;8614;48.522;9.206;2023-08-07T04:25:21;11.10;99.90
16995;DHT22;8614;48.522;9.206;2023-08-07T04:27:47;11.10;99.90
16995;DHT22;8614;48.522;9.206;2023-08-07T04:30:16;11.10;99.90
16995;DHT22;8614;48.522;9.206;2023-08-07T04:32:42;11.10;99.90
16995;DHT22;8614;48.522;9.206;2023-08-07T04:35:09;11.10;99.90
16995;DHT22;8614;48.522;9.206;2023-08-07T04:37:36;11.20;99.90
16995;DHT22;8614;48.522;9.206;2023-08-07T04:40:03;11.10;99.90
16995;DHT22;8614;48.522;9.206;2023-08-07T04:42:31;11.10;99.90
16995;DHT22;8614;48.522;9.206;2023-08-07T04:44:58;11.10;99.90
16995;DHT22;8614;48.522;9.206;2023-08-07T04:47:28;11.00;99.90
16995;DHT22;8614;48.522;9.206;2023-08-07T04:49:55;11.00;99.90
16995;DHT22;8614;48.522;9.206;2023-08-07T04:52:21;11.00;99.90
16995;DHT22;8614;48.522;9.206;2023-08-07T04:54:48;11.00;99.90
16995;DHT22;8614;48.522;9.206;2023-08-07T04:57:15;11.00;99.90
16995;DHT22;8614;48.522;9.206;2023-08-07T04:59:42;11.00;99.90
16995;DHT22;8614;48.522;9.206;2023-08-07T05:02:08;11.00;99.90
16995;DHT22;8614;48.522;9.206;2023-08-07T05:04:37;11.00;99.90
16995;DHT22;8614;48.522;9.206;2023-08-07T05:07:07;11.10;99.90
16995;DHT22;8614;48.522;9.206;2023-08-07T05:09:33;11.10;99.90
16995;DHT22;8614;48.522;9.206;2023-08-07T05:12:00;11.00;99.90
16995;DHT22;8614;48.522;9.206;2023-08-07T05:14:28;11.10;99.90
16995;DHT22;8614;48.522;9.206;2023-08-07T05:16:58;11.10;99.90
16995;DHT22;8614;48.522;9.206;2023-08-07T05:19:32;11.10;99.90
16995;DHT22;8614;48.522;9.206;2023-08-07T05:22:00;11.20;99.90
16995;DHT22;8614;48.522;9.206;2023-08-07T05:24:27;11.10;99.90
16995;DHT22;8614;48.522;9.206;2023-08-07T05:26:59;11.20;99.90
16995;DHT22;8614;48.522;9.206;2023-08-07T05:29:26;11.20;99.90
16995;DHT22;8614;48.522;9.206;2023-08-07T05:31:53;11.30;99.90
16995;DHT22;8614;48.522;9.206;2023-08-07T05:34:20;11.40;99.90
16995;DHT22;8614;48.522;9.206;2023-08-07T05:36:47;11.40;99.90
16995;DHT22;8614;48.522;9.206;2023-08-07T05:39:16;11.50;99.90
16995;DHT22;8614;48.522;9.206;2023-08-07T05:41:42;11.50;99.90
16995;DHT22;8614;48.522;9.206;2023-08-07T05:44:09;11.70;99.90
16995;DHT22;8614;48.522;9.206;2023-08-07T05:46:36;11.80;99.90
16995;DHT22;8614;48.522;9.206;2023-08-07T05:49:03;11.90;99.90
16995;DHT22;8614;48.522;9.206;2023-08-07T05:51:29;11.90;99.90
16995;DHT22;8614;48.522;9.206;2023-08-07T05:53:56;11.90;99.90
16995;DHT22;8614;48.522;9.206;2023-08-07T05:56:24;12.00;99.90
16995;DHT22;8614;48.522;9.206;2023-08-07T05:58:51;12.10;99.90
16995;DHT22;8614;48.522;9.206;2023-08-07T06:01:18;12.20;99.90
16995;DHT22;8614;48.522;9.206;2023-08-07T06:03:45;12.30;99.90
16995;DHT22;8614;48.522;9.206;2023-08-07T06:06:12;12.40;99.90
16995;DHT22;8614;48.522;9.206;2023-08-07T06:08:39;12.40;99.90
16995;DHT22;8614;48.522;9.206;2023-08-07T06:11:05;12.50;99.90
16995;DHT22;8614;48.522;9.206;2023-08-07T06:13:35;12.50;99.90
16995;DHT22;8614;48.522;9.206;2023-08-07T06:16:01;12.60;99.90
16995;DHT22;8614;48.522;9.206;2023-08-07T06:18:28;12.60;99.90
16995;DHT22;8614;48.522;9.206;2023-08-07T06:20:56;12.70;99.90
16995;DHT22;8614;48.522;9.206;2023-08-07T06:23:23;12.80;99.90
16995;DHT22;8614;48.522;9.206;2023-08-07T06:25:50;12.90;99.90
16995;DHT22;8614;48.522;9.206;2023-08-07T06:28:16;12.90;99.90
16995;DHT22;8614;48.522;9.206;2023-08-07T06:30:45;13.00;99.90
16995;DHT22;8614;48.522;9.206;2023-08-07T06:33:11;13.10;99.90
16995;DHT22;8614;48.522;9.206;2023-08-07T06:35:38;13.10;99.90
16995;DHT22;8614;48.522;9.206;2023-08-07T06:38:05;13.20;99.90
16995;DHT22;8614;48.522;9.206;2023-08-07T06:40:35;13.20;99.90
16995;DHT22;8614;48.522;9.206;2023-08-07T06:43:02;13.30;99.90
16995;DHT22;8614;48.522;9.206;2023-08-07T06:45:28;13.40;99.90
16995;DHT22;8614;48.522;9.206;2023-08-07T06:47:57;13.30;99.90
16995;DHT22;8614;48.522;9.206;2023-08-07T06:50:24;13.40;99.90
16995;DHT22;8614;48.522;9.206;2023-08-07T06:52:51;13.50;99.90
16995;DHT22;8614;48.522;9.206;2023-08-07T06:55:18;13.50;99.90
16995;DHT22;8614;48.522;9.206;2023-08-07T06:57:44;13.60;99.90
16995;DHT22;8614;48.522;9.206;2023-08-07T07:00:12;13.80;99.90
16995;DHT22;8614;48.522;9.206;2023-08-07T07:02:39;13.90;99.90
16995;DHT22;8614;48.522;9.206;2023-08-07T07:05:07;14.10;99.90
16995;DHT22;8614;48.522;9.206;2023-08-07T07:07:34;14.40;99.90
16995;DHT22;8614;48.522;9.206;2023-08-07T07:10:01;14.80;99.90
16995;DHT22;8614;48.522;9.206;2023-08-07T07:12:28;14.90;99.90
16995;DHT22;8614;48.522;9.206;2023-08-07T07:14:55;15.00;99.90
16995;DHT22;8614;48.522;9.206;2023-08-07T07:17:22;15.10;99.90
16995;DHT22;8614;48.522;9.206;2023-08-07T07:19:49;15.20;99.90
16995;DHT22;8614;48.522;9.206;2023-08-07T07:22:17;15.40;99.90
16995;DHT22;8614;48.522;9.206;2023-08-07T07:24:46;15.70;99.90
16995;DHT22;8614;48.522;9.206;2023-08-07T07:27:13;15.90;99.90
16995;DHT22;8614;48.522;9.206;2023-08-07T07:29:40;16.10;99.90
16995;DHT22;8614;48.522;9.206;2023-08-07T07:32:09;16.60;99.90
16995;DHT22;8614;48.522;9.206;2023-08-07T07:34:36;16.70;99.90
16995;DHT22;8614;48.522;9.206;2023-08-07T07:37:04;16.70;99.90
16995;DHT22;8614;48.522;9.206;2023-08-07T07:39:32;16.60;99.90
16995;DHT22;8614;48.522;9.206;2023-08-07T07:42:00;16.40;99.90
16995;DHT22;8614;48.522;9.206;2023-08-07T07:44:27;16.20;99.90
16995;DHT22;8614;48.522;9.206;2023-08-07T07:46:54;16.20;99.90
16995;DHT22;8614;48.522;9.206;2023-08-07T07:49:21;16.20;99.90
16995;DHT22;8614;48.522;9.206;2023-08-07T07:51:48;16.50;99.90
16995;DHT22;8614;48.522;9.206;2023-08-07T07:54:15;17.20;99.90
16995;DHT22;8614;48.522;9.206;2023-08-07T07:56:43;17.60;99.90
16995;DHT22;8614;48.522;9.206;2023-08-07T07:59:10;18.10;99.90
16995;DHT22;8614;48.522;9.206;2023-08-07T08:01:37;18.40;99.90
16995;DHT22;8614;48.522;9.206;2023-08-07T08:04:04;19.10;99.90
16995;DHT22;8614;48.522;9.206;2023-08-07T08:06:31;19.50;99.90
16995;DHT22;8614;48.522;9.206;2023-08-07T08:08:58;19.20;99.90
16995;DHT22;8614;48.522;9.206;2023-08-07T08:11:26;19.70;99.90
16995;DHT22;8614;48.522;9.206;2023-08-07T08:13:55;19.90;99.90
16995;DHT22;8614;48.522;9.206;2023-08-07T08:16:21;20.20;99.90
16995;DHT22;8614;48.522;9.206;2023-08-07T08:18:48;19.90;99.90
16995;DHT22;8614;48.522;9.206;2023-08-07T08:21:15;19.60;99.90
16995;DHT22;8614;48.522;9.206;2023-08-07T08:23:42;19.30;99.90
16995;DHT22;8614;48.522;9.206;2023-08-07T08:26:16;19.40;99.90
16995;DHT22;8614;48.522;9.206;2023-08-07T08:28:43;19.30;99.90
16995;DHT22;8614;48.522;9.206;2023-08-07T08:31:11;19.70;99.90
16995;DHT22;8614;48.522;9.206;2023-08-07T08:33:38;20.10;99.90
16995;DHT22;8614;48.522;9.206;2023-08-07T08:36:05;20.10;99.90
16995;DHT22;8614;48.522;9.206;2023-08-07T08:38:32;19.90;99.90
16995;DHT22;8614;48.522;9.206;2023-08-07T08:41:02;19.30;99.90
16995;DHT22;8614;48.522;9.206;2023-08-07T08:43:34;19.70;99.90
16995;DHT22;8614;48.522;9.206;2023-08-07T08:46:01;19.90;99.90
16995;DHT22;8614;48.522;9.206;2023-08-07T08:48:35;19.90;99.90
16995;DHT22;8614;48.522;9.206;2023-08-07T08:51:02;19.70;99.90
16995;DHT22;8614;48.522;9.206;2023-08-07T08:53:30;20.30;99.90
16995;DHT22;8614;48.522;9.206;2023-08-07T08:55:58;20.90;99.90
16995;DHT22;8614;48.522;9.206;2023-08-07T08:58:26;21.30;99.90
16995;DHT22;8614;48.522;9.206;2023-08-07T09:00:53;21.20;99.90
16995;DHT22;8614;48.522;9.206;2023-08-07T09:03:21;20.80;99.90
16995;DHT22;8614;48.522;9.206;2023-08-07T09:05:50;20.30;99.90
16995;DHT22;8614;48.522;9.206;2023-08-07T09:08:20;20.10;99.90
16995;DHT22;8614;48.522;9.206;2023-08-07T09:10:48;20.20;99.90
16995;DHT22;8614;48.522;9.206;2023-08-07T09:13:16;20.60;99.90
16995;DHT22;8614;48.522;9.206;2023-08-07T09:15:46;20.60;99.90
16995;DHT22;8614;48.522;9.206;2023-08-07T09:18:16;20.10;99.90
16995;DHT22;8614;48.522;9.206;2023-08-07T09:20:43;20.30;99.90
16995;DHT22;8614;48.522;9.206;2023-08-07T09:23:11;20.30;99.90
16995;DHT22;8614;48.522;9.206;2023-08-07T09:25:38;20.40;99.90
16995;DHT22;8614;48.522;9.206;2023-08-07T09:28:05;20.50;99.90
16995;DHT22;8614;48.522;9.206;2023-08-07T09:30:34;21.20;99.90
16995;DHT22;8614;48.522;9.206;2023-08-07T09:33:03;21.40;99.90
16995;DHT22;8614;48.522;9.206;2023-08-07T09:35:31;22.30;99.90
16995;DHT22;8614;48.522;9.206;2023-08-07T09:37:59;22.50;99.90
16995;DHT22;8614;48.522;9.206;2023-08-07T09:40:27;22.00;99.90
16995;DHT22;8614;48.522;9.206;2023-08-07T09:42:56;21.90;99.90
16995;DHT22;8614;48.522;9.206;2023-08-07T09:45:24;21.50;99.90
16995;DHT22;8614;48.522;9.206;2023-08-07T09:47:58;21.20;99.90
16995;DHT22;8614;48.522;9.206;2023-08-07T09:50:26;21.70;99.90
16995;DHT22;8614;48.522;9.206;2023-08-07T09:52:53;21.70;99.90
16995;DHT22;8614;48.522;9.206;2023-08-07T09:55:20;21.90;99.90
16995;DHT22;8614;48.522;9.206;2023-08-07T09:57:49;22.00;99.90
16995;DHT22;8614;48.522;9.206;2023-08-07T10:00:17;21.90;99.90
16995;DHT22;8614;48.522;9.206;2023-08-07T10:02:46;21.60;99.90
16995;DHT22;8614;48.522;9.206;2023-08-07T10:05:14;21.30;99.90
16995;DHT22;8614;48.522;9.206;2023-08-07T10:07:41;20.90;99.90
16995;DHT22;8614;48.522;9.206;2023-08-07T10:10:09;20.60;99.90
16995;DHT22;8614;48.522;9.206;2023-08-07T10:12:36;20.30;99.90
16995;DHT22;8614;48.522;9.206;2023-08-07T10:15:06;20.30;99.90
16995;DHT22;8614;48.522;9.206;2023-08-07T10:17:33;20.10;99.90
16995;DHT22;8614;48.522;9.206;2023-08-07T10:20:00;20.20;99.90
16995;DHT22;8614;48.522;9.206;2023-08-07T10:22:29;20.20;99.90
16995;DHT22;8614;48.522;9.206;2023-08-07T10:24:59;19.90;99.90
16995;DHT22;8614;48.522;9.206;2023-08-07T10:27:28;19.60;99.90
16995;DHT22;8614;48.522;9.206;2023-08-07T10:29:57;19.90;99.90
16995;DHT22;8614;48.522;9.206;2023-08-07T10:32:28;20.40;99.90
16995;DHT22;8614;48.522;9.206;2023-08-07T10:34:55;20.50;99.90
16995;DHT22;8614;48.522;9.206;2023-08-07T10:37:46;20.80;99.90
16995;DHT22;8614;48.522;9.206;2023-08-07T10:40:13;20.80;99.90
16995;DHT22;8614;48.522;9.206;2023-08-07T10:42:56;20.90;99.90
16995;DHT22;8614;48.522;9.206;2023-08-07T10:45:24;20.90;99.90
16995;DHT22;8614;48.522;9.206;2023-08-07T10:48:02;20.90;99.90
16995;DHT22;8614;48.522;9.206;2023-08-07T10:50:30;21.10;99.90
16995;DHT22;8614;48.522;9.206;2023-08-07T10:53:00;21.20;99.90
16995;DHT22;8614;48.522;9.206;2023-08-07T10:55:28;21.30;99.90
16995;DHT22;8614;48.522;9.206;2023-08-07T10:57:59;21.00;99.90
16995;DHT22;8614;48.522;9.206;2023-08-07T11:00:26;20.80;99.90
16995;DHT22;8614;48.522;9.206;2023-08-07T11:02:53;20.40;99.90
16995;DHT22;8614;48.522;9.206;2023-08-07T11:05:23;20.30;99.90
16995;DHT22;8614;48.522;9.206;2023-08-07T11:07:51;20.20;99.90
16995;DHT22;8614;48.522;9.206;2023-08-07T11:10:20;20.20;99.90
16995;DHT22;8614;48.522;9.206;2023-08-07T11:12:46;19.90;99.90
16995;DHT22;8614;48.522;9.206;2023-08-07T11:15:15;19.80;99.90
16995;DHT22;8614;48.522;9.206;2023-08-07T11:17:41;19.90;99.90
16995;DHT22;8614;48.522;9.206;2023-08-07T11:20:11;20.00;99.90
16995;DHT22;8614;48.522;9.206;2023-08-07T11:22:39;20.30;99.90
16995;DHT22;8614;48.522;9.206;2023-08-07T11:25:08;20.60;99.90
16995;DHT22;8614;48.522;9.206;2023-08-07T11:27:43;20.70;99.90
16995;DHT22;8614;48.522;9.206;2023-08-07T11:30:11;20.80;99.90
16995;DHT22;8614;48.522;9.206;2023-08-07T11:32:39;21.00;99.90
16995;DHT22;8614;48.522;9.206;2023-08-07T11:35:06;20.80;99.90
16995;DHT22;8614;48.522;9.206;2023-08-07T11:37:33;20.70;99.90
16995;DHT22;8614;48.522;9.206;2023-08-07T11:40:03;20.50;99.90
16995;DHT22;8614;48.522;9.206;2023-08-07T11:42:30;20.10;99.90
16995;DHT22;8614;48.522;9.206;2023-08-07T11:44:56;19.70;99.90
16995;DHT22;8614;48.522;9.206;2023-08-07T11:47:24;19.30;99.90
16995;DHT22;8614;48.522;9.206;2023-08-07T11:49:52;19.30;99.90
16995;DHT22;8614;48.522;9.206;2023-08-07T11:52:19;19.20;99.90
16995;DHT22;8614;48.522;9.206;2023-08-07T11:54:47;19.20;99.90
16995;DHT22;8614;48.522;9.206;2023-08-07T11:57:17;19.30;99.90
16995;DHT22;8614;48.522;9.206;2023-08-07T11:59:48;19.40;99.90
16995;DHT22;8614;48.522;9.206;2023-08-07T12:02:18;19.30;99.90
16995;DHT22;8614;48.522;9.206;2023-08-07T12:04:48;19.40;99.90
16995;DHT22;8614;48.522;9.206;2023-08-07T12:07:17;19.60;99.90
16995;DHT22;8614;48.522;9.206;2023-08-07T12:09:45;19.50;99.90
16995;DHT22;8614;48.522;9.206;2023-08-07T12:12:12;19.30;99.90
16995;DHT22;8614;48.522;9.206;2023-08-07T12:14:40;18.90;99.90
16995;DHT22;8614;48.522;9.206;2023-08-07T12:17:09;18.70;99.90
16995;DHT22;8614;48.522;9.206;2023-08-07T12:19:37;18.50;99.90
16995;DHT22;8614;48.522;9.206;2023-08-07T12:22:06;18.30;99.90
16995;DHT22;8614;48.522;9.206;2023-08-07T12:24:34;18.10;99.90
16995;DHT22;8614;48.522;9.206;2023-08-07T12:27:01;18.00;99.90
16995;DHT22;8614;48.522;9.206;2023-08-07T12:29:28;18.00;99.90
16995;DHT22;8614;48.522;9.206;2023-08-07T12:31:56;17.90;99.90
16995;DHT22;8614;48.522;9.206;2023-08-07T12:34:24;17.80;99.90
16995;DHT22;8614;48.522;9.206;2023-08-07T12:36:51;17.70;99.90
16995;DHT22;8614;48.522;9.206;2023-08-07T12:39:18;17.50;99.90
16995;DHT22;8614;48.522;9.206;2023-08-07T12:41:46;17.40;99.90
16995;DHT22;8614;48.522;9.206;2023-08-07T12:44:14;17.30;99.90
16995;DHT22;8614;48.522;9.206;2023-08-07T12:46:41;17.30;99.90
16995;DHT22;8614;48.522;9.206;2023-08-07T12:49:10;17.30;99.90
16995;DHT22;8614;48.522;9.206;2023-08-07T12:51:36;17.50;99.90
16995;DHT22;8614;48.522;9.206;2023-08-07T12:54:03;17.70;99.90
16995;DHT22;8614;48.522;9.206;2023-08-07T12:56:30;17.90;99.90
16995;DHT22;8614;48.522;9.206;2023-08-07T12:58:57;18.00;99.90
16995;DHT22;8614;48.522;9.206;2023-08-07T13:01:23;18.20;99.90
16995;DHT22;8614;48.522;9.206;2023-08-07T13:03:51;18.30;99.90
16995;DHT22;8614;48.522;9.206;2023-08-07T13:06:19;18.20;99.90
16995;DHT22;8614;48.522;9.206;2023-08-07T13:08:46;18.10;99.90
16995;DHT22;8614;48.522;9.206;2023-08-07T13:11:13;18.00;99.90
16995;DHT22;8614;48.522;9.206;2023-08-07T13:13:40;17.90;99.90
16995;DHT22;8614;48.522;9.206;2023-08-07T13:16:07;17.80;99.90
16995;DHT22;8614;48.522;9.206;2023-08-07T13:18:33;17.80;99.90
16995;DHT22;8614;48.522;9.206;2023-08-07T13:21:00;17.70;99.90
16995;DHT22;8614;48.522;9.206;2023-08-07T13:23:28;17.70;99.90
16995;DHT22;8614;48.522;9.206;2023-08-07T13:25:55;17.80;99.90
16995;DHT22;8614;48.522;9.206;2023-08-07T13:28:22;18.00;99.90
16995;DHT22;8614;48.522;9.206;2023-08-07T13:30:49;18.30;99.90
16995;DHT22;8614;48.522;9.206;2023-08-07T13:33:17;18.60;99.90
16995;DHT22;8614;48.522;9.206;2023-08-07T13:35:45;19.00;99.90
16995;DHT22;8614;48.522;9.206;2023-08-07T13:38:12;19.40;99.90
16995;DHT22;8614;48.522;9.206;2023-08-07T13:40:41;19.60;99.90
16995;DHT22;8614;48.522;9.206;2023-08-07T13:43:09;19.80;99.90
16995;DHT22;8614;48.522;9.206;2023-08-07T13:45:37;20.00;99.90
16995;DHT22;8614;48.522;9.206;2023-08-07T13:48:04;19.80;99.90
16995;DHT22;8614;48.522;9.206;2023-08-07T13:50:31;19.50;99.90
16995;DHT22;8614;48.522;9.206;2023-08-07T13:52:58;19.20;99.90
16995;DHT22;8614;48.522;9.206;2023-08-07T13:55:25;18.80;99.90
16995;DHT22;8614;48.522;9.206;2023-08-07T13:57:54;18.50;99.90
16995;DHT22;8614;48.522;9.206;2023-08-07T14:00:21;18.30;99.90
16995;DHT22;8614;48.522;9.206;2023-08-07T14:02:48;18.30;99.90
16995;DHT22;8614;48.522;9.206;2023-08-07T14:05:15;18.20;99.90
16995;DHT22;8614;48.522;9.206;2023-08-07T14:07:42;18.40;99.90
16995;DHT22;8614;48.522;9.206;2023-08-07T14:10:08;18.50;99.90
16995;DHT22;8614;48.522;9.206;2023-08-07T14:12:35;18.70;99.90
16995;DHT22;8614;48.522;9.206;2023-08-07T14:15:04;18.90;99.90
16995;DHT22;8614;48.522;9.206;2023-08-07T14:17:31;18.90;99.90
16995;DHT22;8614;48.522;9.206;2023-08-07T14:19:58;18.90;99.90
16995;DHT22;8614;48.522;9.206;2023-08-07T14:22:24;19.00;99.90
16995;DHT22;8614;48.522;9.206;2023-08-07T14:24:51;19.00;99.90
16995;DHT22;8614;48.522;9.206;2023-08-07T14:27:18;19.10;99.90
16995;DHT22;8614;48.522;9.206;2023-08-07T14:29:45;19.20;99.90
16995;DHT22;8614;48.522;9.206;2023-08-07T14:32:13;19.20;99.90
16995;DHT22;8614;48.522;9.206;2023-08-07T14:34:40;19.30;99.90
16995;DHT22;8614;48.522;9.206;2023-08-07T14:37:06;19.40;99.90
16995;DHT22;8614;48.522;9.206;2023-08-07T14:39:33;19.50;99.90
16995;DHT22;8614;48.522;9.206;2023-08-07T14:42:00;19.40;99.90
16995;DHT22;8614;48.522;9.206;2023-08-07T14:44:27;19.30;99.90
16995;DHT22;8614;48.522;9.206;2023-08-07T14:46:55;19.20;99.90
16995;DHT22;8614;48.522;9.206;2023-08-07T14:49:23;19.10;99.90
16995;DHT22;8614;48.522;9.206;2023-08-07T14:51:50;19.10;99.90
16995;DHT22;8614;48.522;9.206;2023-08-07T14:54:16;19.20;99.90
16995;DHT22;8614;48.522;9.206;2023-08-07T14:56:43;19.20;99.90
16995;DHT22;8614;48.522;9.206;2023-08-07T14:59:10;19.10;99.90
16995;DHT22;8614;48.522;9.206;2023-08-07T15:01:37;18.90;99.90
16995;DHT22;8614;48.522;9.206;2023-08-07T15:04:04;18.70;99.90
16995;DHT22;8614;48.522;9.206;2023-08-07T15:06:32;18.60;99.90
16995;DHT22;8614;48.522;9.206;2023-08-07T15:08:59;18.50;99.90
16995;DHT22;8614;48.522;9.206;2023-08-07T15:11:26;18.50;99.90
16995;DHT22;8614;48.522;9.206;2023-08-07T15:13:53;18.60;99.90
16995;DHT22;8614;48.522;9.206;2023-08-07T15:16:20;18.60;99.90
16995;DHT22;8614;48.522;9.206;2023-08-07T15:18:46;18.50;99.90
16995;DHT22;8614;48.522;9.206;2023-08-07T15:21:13;18.50;99.90
16995;DHT22;8614;48.522;9.206;2023-08-07T15:23:41;18.40;99.90
16995;DHT22;8614;48.522;9.206;2023-08-07T15:26:08;18.40;99.90
16995;DHT22;8614;48.522;9.206;2023-08-07T15:28:35;18.40;99.90
16995;DHT22;8614;48.522;9.206;2023-08-07T15:31:01;18.40;99.90
16995;DHT22;8614;48.522;9.206;2023-08-07T15:33:28;18.40;99.90
16995;DHT22;8614;48.522;9.206;2023-08-07T15:35:55;18.40;99.90
16995;DHT22;8614;48.522;9.206;2023-08-07T15:38:23;18.40;99.90
16995;DHT22;8614;48.522;9.206;2023-08-07T15:40:51;18.40;99.90
16995;DHT22;8614;48.522;9.206;2023-08-07T15:43:18;18.40;99.90
16995;DHT22;8614;48.522;9.206;2023-08-07T15:45:45;18.40;99.90
16995;DHT22;8614;48.522;9.206;2023-08-07T15:48:12;18.50;99.90
16995;DHT22;8614;48.522;9.206;2023-08-07T15:50:41;18.60;99.90